Darya Krishna — VRQT9 — position and weather

sailwx.info

Track history (hours):
 
Tides and Currents Weather Stations Pressure Air Temp Water Temp Dewpoint Dewpoint Depression Visibility Wind Speed Wind Dir Waves Ship Positions

Darya Krishna

Last reported at 2017-Sep-27 22:46 UTC. Time now 2017-Nov-19 04:54 UTC.
Position N 26°22' W 015°51'.
Warning: this ship's position is 52 days out of date.

Length 180 m; draft 9.9 m.

Type: Cargo ship. MMSI: 477045400.

Date/timePositionNaut miles runAvg speedWind from/ knotsBaromVisibWave heightAir tempDewpointWater temp
2017-Sep-27 22:46N 26°22' W 015°51'6813.4
2017-Sep-27 17:44N 27°26' W 015°24'313.9
2017-Sep-27 17:30N 27°29' W 015°23'714.1
2017-Sep-27 17:00N 27°35' W 015°20'714.2
2017-Sep-27 16:30N 27°42' W 015°17'713.6
2017-Sep-27 16:00N 27°48' W 015°16'713.9
2017-Sep-27 15:30N 27°55' W 015°15'713.3
2017-Sep-27 15:00N 28°02' W 015°18'612.2
2017-Sep-27 14:30N 28°06' W 015°23'2 3.4
2017-Sep-27 13:59N 28°07' W 015°24'0 0.0
2017-Sep-27 13:29N 28°07' W 015°24'0 0.0
2017-Sep-27 12:47N 28°07' W 015°24'0 0.0
2017-Sep-27 12:29N 28°07' W 015°24'0 0.0
2017-Sep-27 11:59N 28°07' W 015°24'0 0.0
2017-Sep-27 11:20N 28°07' W 015°24'0 0.0
2017-Sep-27 10:50N 28°07' W 015°24'0 0.0
2017-Sep-27 10:23N 28°07' W 015°24'0 0.0
2017-Sep-27 09:53N 28°07' W 015°24'0 0.0
2017-Sep-27 09:23N 28°07' W 015°24'0 0.1
2017-Sep-27 08:53N 28°07' W 015°24'0 0.0
2017-Sep-27 08:23N 28°07' W 015°24'0 0.0
2017-Sep-27 08:00N 28°07' W 015°24'1 2.4
2017-Sep-27 07:30N 28°07' W 015°23'3 5.8
2017-Sep-27 07:00N 28°09' W 015°21'3 6.7
2017-Sep-27 06:30N 28°11' W 015°18'4 8.2
2017-Sep-27 06:00N 28°14' W 015°15'713.6
2017-Sep-27 05:30N 28°19' W 015°09'713.8
2017-Sep-27 05:00N 28°24' W 015°03'714.3
2017-Sep-27 04:30N 28°29' W 014°58'714.5
2017-Sep-27 04:00N 28°34' W 014°52'713.9
2017-Sep-27 03:31N 28°39' W 014°46'713.7
2017-Sep-27 03:00N 28°43' W 014°40'713.5
2017-Sep-27 02:30N 28°48' W 014°35'713.6
2017-Sep-27 02:00N 28°53' W 014°29'713.7
2017-Sep-27 01:31N 28°57' W 014°24'714.0
2017-Sep-27 01:00N 29°02' W 014°18'714.1
2017-Sep-27 00:30N 29°07' W 014°12'714.1
2017-Sep-26 23:59N 29°13' W 014°06'714.1
2017-Sep-26 23:30N 29°17' W 014°01'714.1
2017-Sep-26 23:00N 29°22' W 013°55'714.1
2017-Sep-26 22:30N 29°27' W 013°49'714.1
2017-Sep-26 22:00N 29°32' W 013°43'713.9
2017-Sep-26 21:30N 29°37' W 013°37'713.9
2017-Sep-26 21:00N 29°42' W 013°32'713.9
2017-Sep-26 20:30N 29°47' W 013°26'713.8
2017-Sep-26 20:00N 29°51' W 013°20'714.0
2017-Sep-26 19:30N 29°56' W 013°14'12213.8
2017-Sep-26 10:38N 31°21' W 011°33'214.3
2017-Sep-26 10:30N 31°23' W 011°31'1514.4
2017-Sep-26 09:30N 31°33' W 011°19'13713.6
2017-Sep-25 23:25N 33°06' W 009°21'613.7
2017-Sep-25 22:59N 33°09' W 009°15'713.6
2017-Sep-25 22:30N 33°12' W 009°07'813.7
2017-Sep-25 21:54N 33°15' W 008°59'  
2017-Sep-19 21:50N 32°19' W 009°15'0 0.0
2017-Sep-19 19:56N 32°19' W 009°15'0 0.0
2017-Sep-19 16:26N 32°19' W 009°15'0 0.0
2017-Sep-19 15:59N 32°19' W 009°15'0 0.0
2017-Sep-19 15:29N 32°19' W 009°15'0 0.0
2017-Sep-19 04:29N 32°19' W 009°15'  
Track history (hours):
 
Tides and Currents Weather Stations Pressure Air Temp Water Temp Dewpoint Dewpoint Depression Visibility Wind Speed Wind Dir Waves Ship Positions

Darya Krishna

Last reported at 2017-Sep-27 22:46 UTC. Time now 2017-Nov-19 04:54 UTC.
Position N 26°22' W 015°51'.
Warning: this ship's position is 52 days out of date.

Length 180 m; draft 9.9 m.

Type: Cargo ship. MMSI: 477045400.

Date/timePositionNaut miles runAvg speedWind from/ knotsBaromVisibWave heightAir tempDewpointWater temp
2017-Sep-27 22:46N 26°22' W 015°51'6813.4
2017-Sep-27 17:44N 27°26' W 015°24'313.9
2017-Sep-27 17:30N 27°29' W 015°23'714.1
2017-Sep-27 17:00N 27°35' W 015°20'714.2
2017-Sep-27 16:30N 27°42' W 015°17'713.6
2017-Sep-27 16:00N 27°48' W 015°16'713.9
2017-Sep-27 15:30N 27°55' W 015°15'713.3
2017-Sep-27 15:00N 28°02' W 015°18'612.2
2017-Sep-27 14:30N 28°06' W 015°23'2 3.4
2017-Sep-27 13:59N 28°07' W 015°24'0 0.0
2017-Sep-27 13:29N 28°07' W 015°24'0 0.0
2017-Sep-27 12:47N 28°07' W 015°24'0 0.0
2017-Sep-27 12:29N 28°07' W 015°24'0 0.0
2017-Sep-27 11:59N 28°07' W 015°24'0 0.0
2017-Sep-27 11:20N 28°07' W 015°24'0 0.0
2017-Sep-27 10:50N 28°07' W 015°24'0 0.0
2017-Sep-27 10:23N 28°07' W 015°24'0 0.0
2017-Sep-27 09:53N 28°07' W 015°24'0 0.0
2017-Sep-27 09:23N 28°07' W 015°24'0 0.1
2017-Sep-27 08:53N 28°07' W 015°24'0 0.0
2017-Sep-27 08:23N 28°07' W 015°24'0 0.0
2017-Sep-27 08:00N 28°07' W 015°24'1 2.4
2017-Sep-27 07:30N 28°07' W 015°23'3 5.8
2017-Sep-27 07:00N 28°09' W 015°21'3 6.7
2017-Sep-27 06:30N 28°11' W 015°18'4 8.2
2017-Sep-27 06:00N 28°14' W 015°15'713.6
2017-Sep-27 05:30N 28°19' W 015°09'713.8
2017-Sep-27 05:00N 28°24' W 015°03'714.3
2017-Sep-27 04:30N 28°29' W 014°58'714.5
2017-Sep-27 04:00N 28°34' W 014°52'713.9
2017-Sep-27 03:31N 28°39' W 014°46'713.7
2017-Sep-27 03:00N 28°43' W 014°40'713.5
2017-Sep-27 02:30N 28°48' W 014°35'713.6
2017-Sep-27 02:00N 28°53' W 014°29'713.7
2017-Sep-27 01:31N 28°57' W 014°24'714.0
2017-Sep-27 01:00N 29°02' W 014°18'714.1
2017-Sep-27 00:30N 29°07' W 014°12'714.1
2017-Sep-26 23:59N 29°13' W 014°06'714.1
2017-Sep-26 23:30N 29°17' W 014°01'714.1
2017-Sep-26 23:00N 29°22' W 013°55'714.1
2017-Sep-26 22:30N 29°27' W 013°49'714.1
2017-Sep-26 22:00N 29°32' W 013°43'713.9
2017-Sep-26 21:30N 29°37' W 013°37'713.9
2017-Sep-26 21:00N 29°42' W 013°32'713.9
2017-Sep-26 20:30N 29°47' W 013°26'713.8
2017-Sep-26 20:00N 29°51' W 013°20'714.0
2017-Sep-26 19:30N 29°56' W 013°14'12213.8
2017-Sep-26 10:38N 31°21' W 011°33'214.3
2017-Sep-26 10:30N 31°23' W 011°31'1514.4
2017-Sep-26 09:30N 31°33' W 011°19'13713.6
2017-Sep-25 23:25N 33°06' W 009°21'613.7
2017-Sep-25 22:59N 33°09' W 009°15'713.6
2017-Sep-25 22:30N 33°12' W 009°07'813.7
2017-Sep-25 21:54N 33°15' W 008°59'  
2017-Sep-19 21:50N 32°19' W 009°15'0 0.0
2017-Sep-19 19:56N 32°19' W 009°15'0 0.0
2017-Sep-19 16:26N 32°19' W 009°15'0 0.0
2017-Sep-19 15:59N 32°19' W 009°15'0 0.0
2017-Sep-19 15:29N 32°19' W 009°15'0 0.0
2017-Sep-19 04:29N 32°19' W 009°15'  

Dump ship's entire track history